Time;durP1;ratioP1;P1;durP2;ratioP2;P2;SDS_P1;SDS_P2;PMS_P1;PMS_P2;Temp;Humidity;BMP_temperature;BMP_pressure;BME280_temperature;BME280_humidity;BME280_pressure;Samples;Min_cycle;Max_cycle;Signal;HPM_P1;HPM_P2
2021/04/24 00:01:21;;;;;;;7.32;4.75;;;;;;;;;;5037486;28;20210;-83
2021/04/24 00:03:47;;;;;;;7.20;5.07;;;;;;;;;;5042215;28;20224;-82
2021/04/24 00:06:13;;;;;;;6.38;4.82;;;;;;;;;;5041027;28;20185;-82
2021/04/24 00:08:39;;;;;;;7.70;4.88;;;;;;;;;;5054667;28;20181;-82
2021/04/24 00:11:05;;;;;;;9.82;5.13;;;;;;;;;;5040404;28;20174;-83
2021/04/24 00:13:31;;;;;;;7.50;4.85;;;;;;;;;;5054156;28;20217;-83
2021/04/24 00:15:57;;;;;;;8.38;4.93;;;;;;;;;;5038613;28;20190;-82
2021/04/24 00:18:23;;;;;;;7.40;5.38;;;;;;;;;;5044071;28;20182;-83
2021/04/24 00:20:50;;;;;;;6.53;5.05;;;;;;;;;;5038766;28;20174;-83
2021/04/24 00:23:17;;;;;;;8.18;5.30;;;;;;;;;;5040076;28;20208;-84
2021/04/24 00:25:43;;;;;;;5.38;4.63;;;;;;;;;;5039766;28;20243;-82
2021/04/24 00:28:10;;;;;;;8.38;4.60;;;;;;;;;;5036949;28;20200;-83
2021/04/24 00:30:37;;;;;;;7.80;5.05;;;;;;;;;;5022459;28;20178;-82
2021/04/24 00:33:03;;;;;;;8.20;5.30;;;;;;;;;;5038748;28;20209;-81
2021/04/24 00:35:29;;;;;;;8.18;4.50;;;;;;;;;;5055337;28;20694;-82
2021/04/24 00:37:56;;;;;;;8.85;5.10;;;;;;;;;;5038329;28;20174;-82
2021/04/24 00:40:22;;;;;;;7.95;5.25;;;;;;;;;;5038117;28;20233;-82
2021/04/24 00:42:48;;;;;;;7.20;4.75;;;;;;;;;;5041790;28;20240;-83
2021/04/24 00:45:15;;;;;;;8.55;5.00;;;;;;;;;;5042966;28;20758;-83
2021/04/24 00:47:41;;;;;;;6.57;4.30;;;;;;;;;;5038396;28;20193;-82
2021/04/24 00:50:09;;;;;;;9.35;5.93;;;;;;;;;;5053935;28;20261;-83
2021/04/24 00:52:35;;;;;;;15.38;5.63;;;;;;;;;;5038209;28;20733;-83
2021/04/24 00:55:01;;;;;;;9.18;4.22;;;;;;;;;;5039419;28;20266;-83
2021/04/24 00:57:29;;;;;;;6.03;4.82;;;;;;;;;;5041935;28;20663;-82
2021/04/24 00:59:55;;;;;;;5.95;4.35;;;;;;;;;;5036653;28;20182;-81
2021/04/24 01:02:21;;;;;;;6.20;4.10;;;;;;;;;;5039555;28;20178;-82
2021/04/24 01:04:47;;;;;;;10.23;5.55;;;;;;;;;;5036292;28;20196;-83
2021/04/24 01:07:13;;;;;;;6.72;4.93;;;;;;;;;;5037884;28;20238;-82
2021/04/24 01:09:39;;;;;;;8.80;4.80;;;;;;;;;;5042862;28;20185;-83
2021/04/24 01:12:06;;;;;;;5.00;4.10;;;;;;;;;;5054136;28;20196;-82
2021/04/24 01:14:31;;;;;;;6.43;5.10;;;;;;;;;;5052939;28;20205;-82
2021/04/24 01:16:57;;;;;;;7.07;5.10;;;;;;;;;;5038476;28;20166;-82
2021/04/24 01:19:25;;;;;;;9.68;5.15;;;;;;;;;;5037523;28;20228;-83
2021/04/24 01:21:52;;;;;;;7.47;4.60;;;;;;;;;;5040616;28;20220;-83
2021/04/24 01:24:19;;;;;;;6.18;4.20;;;;;;;;;;5055792;28;20217;-82
2021/04/24 01:26:46;;;;;;;11.65;5.13;;;;;;;;;;5038013;28;20503;-83
2021/04/24 01:29:12;;;;;;;6.68;4.40;;;;;;;;;;5040728;28;20193;-83
2021/04/24 01:31:38;;;;;;;7.57;5.05;;;;;;;;;;5036558;28;20185;-83
2021/04/24 01:34:06;;;;;;;7.82;4.60;;;;;;;;;;5038214;28;20260;-83
2021/04/24 01:36:32;;;;;;;8.45;5.25;;;;;;;;;;5038261;28;20236;-82
2021/04/24 01:38:58;;;;;;;7.63;4.68;;;;;;;;;;5048456;28;20234;-82
2021/04/24 01:41:24;;;;;;;8.32;5.32;;;;;;;;;;5049853;28;20540;-82
2021/04/24 01:43:54;;;;;;;6.55;5.53;;;;;;;;;;5052205;28;20212;-82
2021/04/24 01:46:20;;;;;;;6.93;4.82;;;;;;;;;;5038042;28;20200;-82
2021/04/24 01:48:46;;;;;;;7.20;5.70;;;;;;;;;;5022992;28;20239;-82
2021/04/24 01:51:12;;;;;;;10.10;5.40;;;;;;;;;;5039478;28;20224;-83
2021/04/24 01:53:39;;;;;;;9.82;5.35;;;;;;;;;;5036703;28;20170;-82
2021/04/24 01:56:06;;;;;;;7.55;4.93;;;;;;;;;;5037906;28;20181;-82
2021/04/24 01:58:32;;;;;;;8.38;5.95;;;;;;;;;;5036952;28;20198;-82
2021/04/24 02:00:59;;;;;;;7.40;5.45;;;;;;;;;;5039309;28;20182;-82
2021/04/24 02:03:26;;;;;;;9.80;5.95;;;;;;;;;;5040772;28;20186;-82
2021/04/24 02:05:52;;;;;;;6.72;5.00;;;;;;;;;;5036374;28;20291;-82
2021/04/24 02:08:22;;;;;;;8.43;5.05;;;;;;;;;;5043653;28;20627;-82
2021/04/24 02:10:49;;;;;;;14.05;5.90;;;;;;;;;;5036618;28;20200;-82
2021/04/24 02:13:17;;;;;;;7.03;5.60;;;;;;;;;;5014409;28;20229;-82
2021/04/24 02:15:43;;;;;;;7.70;5.55;;;;;;;;;;5037862;28;20201;-82
2021/04/24 02:18:10;;;;;;;7.75;4.75;;;;;;;;;;5039746;28;20192;-82
2021/04/24 02:20:37;;;;;;;10.55;6.13;;;;;;;;;;5027346;28;20254;-82
2021/04/24 02:23:03;;;;;;;11.02;5.78;;;;;;;;;;5038571;28;20176;-82
2021/04/24 02:25:29;;;;;;;7.03;4.93;;;;;;;;;;5029616;28;20190;-82
2021/04/24 02:27:55;;;;;;;6.97;5.10;;;;;;;;;;5036130;28;20186;-83
2021/04/24 02:30:22;;;;;;;7.78;4.60;;;;;;;;;;5054751;28;20241;-83
2021/04/24 02:32:48;;;;;;;9.38;5.60;;;;;;;;;;5038937;28;20191;-82
2021/04/24 02:35:16;;;;;;;7.03;4.60;;;;;;;;;;5049157;28;20236;-82
2021/04/24 02:37:43;;;;;;;7.07;4.55;;;;;;;;;;5034014;28;20177;-82
2021/04/24 02:40:11;;;;;;;11.15;5.30;;;;;;;;;;5036616;28;20237;-82
2021/04/24 02:42:37;;;;;;;7.13;5.05;;;;;;;;;;5041032;28;20357;-82
2021/04/24 02:45:06;;;;;;;5.93;4.85;;;;;;;;;;5037836;28;20209;-82
2021/04/24 02:47:32;;;;;;;11.70;4.57;;;;;;;;;;5052137;28;20639;-83
2021/04/24 02:49:59;;;;;;;9.27;5.40;;;;;;;;;;5052985;28;20236;-82
2021/04/24 02:52:25;;;;;;;6.93;5.35;;;;;;;;;;5037093;28;20187;-82
2021/04/24 02:54:51;;;;;;;9.77;5.57;;;;;;;;;;5039704;28;20210;-82
2021/04/24 02:57:17;;;;;;;8.05;4.93;;;;;;;;;;5035612;28;20205;-82
2021/04/24 02:59:43;;;;;;;8.13;5.32;;;;;;;;;;5037755;28;20174;-82
2021/04/24 03:02:09;;;;;;;8.77;5.68;;;;;;;;;;5038710;28;20204;-82
2021/04/24 03:04:35;;;;;;;8.75;6.18;;;;;;;;;;5042553;28;20196;-82
2021/04/24 03:07:01;;;;;;;8.05;4.78;;;;;;;;;;5023483;28;20190;-82
2021/04/24 03:09:27;;;;;;;6.15;4.65;;;;;;;;;;5039914;28;20829;-82
2021/04/24 03:11:52;;;;;;;7.90;5.32;;;;;;;;;;5059489;28;20197;-82
2021/04/24 03:14:18;;;;;;;10.88;5.20;;;;;;;;;;5041116;28;20216;-82
2021/04/24 03:16:45;;;;;;;8.57;5.45;;;;;;;;;;5038865;28;20197;-82
2021/04/24 03:19:11;;;;;;;8.70;4.90;;;;;;;;;;5040471;28;20186;-82
2021/04/24 03:21:37;;;;;;;4.95;4.53;;;;;;;;;;5041259;28;20174;-82
2021/04/24 03:24:04;;;;;;;8.80;5.03;;;;;;;;;;5055951;28;20178;-82
2021/04/24 03:26:31;;;;;;;8.25;4.50;;;;;;;;;;5056010;28;20245;-82
2021/04/24 03:28:57;;;;;;;10.18;5.90;;;;;;;;;;5054646;28;20638;-82
2021/04/24 03:31:23;;;;;;;6.85;5.20;;;;;;;;;;5021702;28;20187;-82
2021/04/24 03:33:49;;;;;;;11.82;5.50;;;;;;;;;;5040971;28;20221;-83
2021/04/24 03:36:15;;;;;;;6.72;4.90;;;;;;;;;;5041356;28;20248;-82
2021/04/24 03:38:41;;;;;;;7.53;4.63;;;;;;;;;;5039859;28;20213;-82
2021/04/24 03:41:10;;;;;;;12.25;6.30;;;;;;;;;;5041531;28;20542;-82
2021/04/24 03:43:36;;;;;;;8.43;5.40;;;;;;;;;;5040012;28;20252;-82
2021/04/24 03:46:03;;;;;;;8.60;5.35;;;;;;;;;;5040788;28;20182;-82
2021/04/24 03:48:29;;;;;;;8.07;5.30;;;;;;;;;;5042074;28;20280;-82
2021/04/24 03:50:55;;;;;;;10.02;5.50;;;;;;;;;;5051694;28;20185;-82
2021/04/24 03:53:21;;;;;;;7.72;5.25;;;;;;;;;;5034219;28;20265;-82
2021/04/24 03:55:47;;;;;;;8.07;5.72;;;;;;;;;;5029501;28;20233;-82
2021/04/24 03:58:13;;;;;;;8.20;4.80;;;;;;;;;;5037942;28;20186;-82
2021/04/24 04:00:39;;;;;;;6.50;5.10;;;;;;;;;;5043304;28;20261;-82
2021/04/24 04:03:06;;;;;;;11.85;5.10;;;;;;;;;;5039985;28;20197;-82
2021/04/24 04:05:33;;;;;;;6.10;5.28;;;;;;;;;;5039689;28;20178;-82
2021/04/24 04:08:00;;;;;;;6.28;5.07;;;;;;;;;;5040222;28;20196;-82
2021/04/24 04:10:26;;;;;;;6.43;4.97;;;;;;;;;;5037896;28;20209;-82
2021/04/24 04:12:53;;;;;;;12.10;5.60;;;;;;;;;;5042142;28;20181;-82
2021/04/24 04:15:19;;;;;;;6.38;4.50;;;;;;;;;;5041565;28;20205;-82
2021/04/24 04:17:57;;;;;;;8.65;5.15;;;;;;;;;;5052288;28;20166;-82
2021/04/24 04:20:23;;;;;;;6.50;4.80;;;;;;;;;;5040020;28;20186;-82
2021/04/24 04:22:49;;;;;;;8.35;4.75;;;;;;;;;;5038355;28;20224;-82
2021/04/24 04:25:16;;;;;;;8.60;5.65;;;;;;;;;;5038788;28;20186;-82
2021/04/24 04:27:42;;;;;;;8.90;5.43;;;;;;;;;;5043371;28;20494;-82
2021/04/24 04:30:10;;;;;;;8.70;5.25;;;;;;;;;;5040036;28;20185;-82
2021/04/24 04:32:36;;;;;;;7.70;5.97;;;;;;;;;;5038945;28;20185;-81
2021/04/24 04:35:03;;;;;;;6.32;4.93;;;;;;;;;;5037715;28;20205;-82
2021/04/24 04:37:29;;;;;;;7.15;5.28;;;;;;;;;;5038514;28;20183;-82
2021/04/24 04:39:55;;;;;;;6.20;4.97;;;;;;;;;;5041151;28;20218;-82
2021/04/24 04:42:21;;;;;;;9.43;4.75;;;;;;;;;;5039103;28;20666;-82
2021/04/24 04:44:47;;;;;;;7.60;5.20;;;;;;;;;;5042452;28;20182;-82
2021/04/24 04:47:13;;;;;;;7.15;4.55;;;;;;;;;;5040515;28;20182;-82
2021/04/24 04:49:39;;;;;;;6.90;5.43;;;;;;;;;;5024281;28;20608;-81
2021/04/24 04:52:05;;;;;;;8.48;5.22;;;;;;;;;;5041616;28;20222;-82
2021/04/24 04:54:31;;;;;;;8.75;5.75;;;;;;;;;;5043430;28;20206;-82
2021/04/24 04:56:57;;;;;;;8.00;5.20;;;;;;;;;;5038063;28;20193;-82
2021/04/24 04:59:23;;;;;;;7.95;5.30;;;;;;;;;;5055367;28;20419;-81
2021/04/24 05:01:49;;;;;;;11.27;5.47;;;;;;;;;;5037874;28;20182;-82
2021/04/24 05:04:15;;;;;;;6.32;5.10;;;;;;;;;;5037060;28;20281;-82
2021/04/24 05:06:42;;;;;;;9.38;4.72;;;;;;;;;;5024183;28;20178;-81
2021/04/24 05:09:08;;;;;;;8.82;5.25;;;;;;;;;;5027296;28;20197;-81
2021/04/24 05:11:34;;;;;;;8.70;6.00;;;;;;;;;;5053164;28;20174;-81
2021/04/24 05:14:00;;;;;;;12.10;5.00;;;;;;;;;;5041493;28;20209;-81
2021/04/24 05:16:26;;;;;;;7.43;5.25;;;;;;;;;;5040048;28;20186;-81
2021/04/24 05:18:52;;;;;;;10.65;5.82;;;;;;;;;;5039664;28;20186;-82
2021/04/24 05:21:18;;;;;;;9.43;5.25;;;;;;;;;;5037341;28;20189;-82
2021/04/24 05:23:44;;;;;;;7.95;5.28;;;;;;;;;;5041471;28;20173;-82
2021/04/24 05:26:10;;;;;;;10.65;5.50;;;;;;;;;;5040027;28;20173;-82
2021/04/24 05:28:36;;;;;;;9.50;4.78;;;;;;;;;;5018908;28;20204;-82
2021/04/24 05:31:02;;;;;;;8.90;5.60;;;;;;;;;;5020868;28;20273;-82
2021/04/24 05:33:28;;;;;;;8.30;4.80;;;;;;;;;;5033592;28;20926;-82
2021/04/24 05:35:55;;;;;;;7.97;5.35;;;;;;;;;;5033515;28;20202;-82
2021/04/24 05:38:21;;;;;;;8.40;6.55;;;;;;;;;;5054637;28;20556;-83
2021/04/24 05:40:47;;;;;;;8.02;5.78;;;;;;;;;;5038259;28;20192;-83
2021/04/24 05:43:13;;;;;;;8.25;5.82;;;;;;;;;;5036055;28;20273;-82
2021/04/24 05:45:39;;;;;;;10.95;5.05;;;;;;;;;;5042288;28;20194;-81
2021/04/24 05:48:05;;;;;;;6.28;5.43;;;;;;;;;;5037068;28;20319;-82
2021/04/24 05:50:31;;;;;;;8.50;5.88;;;;;;;;;;5038661;28;20237;-82
2021/04/24 05:52:57;;;;;;;11.13;6.75;;;;;;;;;;5053132;28;20204;-82
2021/04/24 05:55:23;;;;;;;9.43;7.43;;;;;;;;;;5037657;28;20245;-82
2021/04/24 05:57:50;;;;;;;11.40;6.75;;;;;;;;;;5020631;28;20857;-83
2021/04/24 06:00:18;;;;;;;8.80;6.10;;;;;;;;;;5054543;28;20182;-83
2021/04/24 06:02:44;;;;;;;10.13;7.07;;;;;;;;;;5034564;28;20174;-83
2021/04/24 06:05:10;;;;;;;13.95;7.55;;;;;;;;;;5048301;28;20182;-83
2021/04/24 06:07:37;;;;;;;17.75;8.48;;;;;;;;;;5037556;28;20178;-82
2021/04/24 06:10:04;;;;;;;10.88;6.53;;;;;;;;;;5038319;28;20186;-83
2021/04/24 06:12:30;;;;;;;11.95;7.50;;;;;;;;;;5041418;28;20189;-82
2021/04/24 06:14:56;;;;;;;11.43;7.50;;;;;;;;;;5042730;28;20202;-83
2021/04/24 06:17:22;;;;;;;12.75;7.28;;;;;;;;;;5058232;28;20266;-83
2021/04/24 06:19:48;;;;;;;14.32;7.88;;;;;;;;;;5056114;28;20406;-83
2021/04/24 06:22:14;;;;;;;10.70;7.43;;;;;;;;;;5040083;28;20217;-83
2021/04/24 06:24:40;;;;;;;16.20;7.07;;;;;;;;;;5034987;28;20273;-84
2021/04/24 06:27:07;;;;;;;11.25;7.05;;;;;;;;;;5037513;28;20581;-84
2021/04/24 06:29:33;;;;;;;7.57;6.15;;;;;;;;;;5042726;28;20178;-83
2021/04/24 06:31:59;;;;;;;9.25;6.88;;;;;;;;;;5037944;28;20363;-83
2021/04/24 06:34:25;;;;;;;14.98;7.32;;;;;;;;;;5035670;28;20238;-84
2021/04/24 06:36:51;;;;;;;11.35;6.82;;;;;;;;;;5040259;28;20561;-84
2021/04/24 06:39:17;;;;;;;10.98;7.85;;;;;;;;;;5038281;28;20248;-83
2021/04/24 06:41:43;;;;;;;14.55;7.80;;;;;;;;;;5044535;28;20173;-83
2021/04/24 06:44:09;;;;;;;12.50;7.60;;;;;;;;;;5041374;28;20182;-82
2021/04/24 06:46:35;;;;;;;8.95;5.80;;;;;;;;;;5022167;28;20231;-83
2021/04/24 06:49:03;;;;;;;11.60;7.32;;;;;;;;;;5042272;28;20193;-83
2021/04/24 06:51:29;;;;;;;11.52;6.90;;;;;;;;;;5059501;28;20209;-83
2021/04/24 06:53:55;;;;;;;13.25;7.47;;;;;;;;;;5038876;28;20213;-83
2021/04/24 06:56:21;;;;;;;16.48;8.13;;;;;;;;;;5057901;28;20182;-83
2021/04/24 06:58:47;;;;;;;10.05;7.05;;;;;;;;;;5038502;28;20193;-83
2021/04/24 07:01:13;;;;;;;9.82;7.43;;;;;;;;;;5042229;28;20249;-85
2021/04/24 07:03:39;;;;;;;12.27;8.13;;;;;;;;;;5019896;28;20182;-84
2021/04/24 07:06:06;;;;;;;12.13;7.60;;;;;;;;;;5060074;28;20188;-83
2021/04/24 07:08:32;;;;;;;13.18;7.78;;;;;;;;;;5035090;28;20455;-88
2021/04/24 07:10:58;;;;;;;12.73;7.82;;;;;;;;;;5030785;28;20178;-83
2021/04/24 07:13:24;;;;;;;12.95;7.78;;;;;;;;;;5041941;28;20296;-82
2021/04/24 07:15:50;;;;;;;16.38;7.53;;;;;;;;;;5039784;28;20233;-82
2021/04/24 07:18:16;;;;;;;14.18;8.25;;;;;;;;;;5042812;28;20184;-83
2021/04/24 07:20:42;;;;;;;13.53;7.23;;;;;;;;;;5053105;28;20246;-83
2021/04/24 07:23:08;;;;;;;10.27;7.35;;;;;;;;;;5038743;28;20443;-85
2021/04/24 07:25:34;;;;;;;11.70;7.93;;;;;;;;;;5042243;28;20182;-83
2021/04/24 07:28:00;;;;;;;10.77;8.13;;;;;;;;;;5044545;28;20189;-87
2021/04/24 07:30:26;;;;;;;9.27;7.80;;;;;;;;;;5044162;28;20217;-84
2021/04/24 07:32:53;;;;;;;9.85;8.25;;;;;;;;;;5044027;28;20448;-83
2021/04/24 07:35:19;;;;;;;11.55;9.00;;;;;;;;;;5052667;28;20210;-83
2021/04/24 07:37:45;;;;;;;12.60;8.32;;;;;;;;;;5045291;28;20182;-84
2021/04/24 07:40:13;;;;;;;8.27;6.93;;;;;;;;;;5040039;28;20276;-85
2021/04/24 07:42:39;;;;;;;14.52;7.93;;;;;;;;;;5055822;28;20182;-84
2021/04/24 07:45:06;;;;;;;11.50;7.60;;;;;;;;;;5059781;28;20197;-84
2021/04/24 07:47:32;;;;;;;16.98;7.85;;;;;;;;;;5040948;28;20200;-84
2021/04/24 07:49:58;;;;;;;10.47;7.80;;;;;;;;;;5040065;28;20206;-87
2021/04/24 07:52:24;;;;;;;9.95;7.65;;;;;;;;;;5037757;28;20936;-84
2021/04/24 07:54:50;;;;;;;8.90;6.65;;;;;;;;;;5026284;28;20566;-84
2021/04/24 07:57:16;;;;;;;13.77;8.63;;;;;;;;;;5059782;28;20182;-86
2021/04/24 07:59:43;;;;;;;11.25;7.68;;;;;;;;;;5039188;28;20227;-82
2021/04/24 08:02:13;;;;;;;8.20;6.60;;;;;;;;;;5055238;28;20178;-84
2021/04/24 08:04:39;;;;;;;11.18;7.93;;;;;;;;;;5020526;28;20348;-85
2021/04/24 08:07:07;;;;;;;10.07;7.40;;;;;;;;;;5042772;28;20182;-86
2021/04/24 08:09:33;;;;;;;10.27;7.35;;;;;;;;;;5041444;28;20201;-88
2021/04/24 08:12:00;;;;;;;10.93;6.90;;;;;;;;;;5057628;28;20190;-85
2021/04/24 08:14:25;;;;;;;10.07;6.22;;;;;;;;;;5045299;28;20216;-86
2021/04/24 08:16:52;;;;;;;16.48;8.10;;;;;;;;;;5024647;28;20185;-85
2021/04/24 08:19:18;;;;;;;11.95;7.68;;;;;;;;;;5042974;28;20200;-84
2021/04/24 08:21:44;;;;;;;12.40;6.65;;;;;;;;;;5043126;28;20182;-86
2021/04/24 08:24:11;;;;;;;9.75;7.13;;;;;;;;;;5039049;28;20190;-84
2021/04/24 08:26:37;;;;;;;14.55;7.95;;;;;;;;;;5041332;28;20182;-85
2021/04/24 08:29:07;;;;;;;11.02;7.28;;;;;;;;;;5052976;28;20196;-84
2021/04/24 08:31:34;;;;;;;10.88;6.93;;;;;;;;;;5038613;28;20174;-82
2021/04/24 08:34:00;;;;;;;11.93;7.53;;;;;;;;;;5040506;28;20252;-86
2021/04/24 08:36:26;;;;;;;11.07;7.90;;;;;;;;;;5033803;28;20187;-84
2021/04/24 08:38:52;;;;;;;15.45;8.52;;;;;;;;;;5055775;28;20254;-84
2021/04/24 08:41:18;;;;;;;11.33;7.33;;;;;;;;;;5040306;28;20174;-83
2021/04/24 08:43:44;;;;;;;14.85;9.02;;;;;;;;;;5039100;28;20427;-84
2021/04/24 08:46:15;;;;;;;16.67;8.33;;;;;;;;;;5021169;28;20194;-91
2021/04/24 08:48:41;;;;;;;9.70;6.75;;;;;;;;;;5032252;28;20450;-82
2021/04/24 08:51:07;;;;;;;13.52;8.05;;;;;;;;;;5030355;28;20212;-82
2021/04/24 08:53:33;;;;;;;12.88;8.50;;;;;;;;;;5039304;28;20602;-83
2021/04/24 08:55:59;;;;;;;13.50;7.53;;;;;;;;;;5039554;28;20201;-84
2021/04/24 08:58:25;;;;;;;14.35;8.25;;;;;;;;;;5017028;28;20191;-87
2021/04/24 09:00:52;;;;;;;14.85;8.75;;;;;;;;;;5037423;28;20563;-86
2021/04/24 09:03:22;;;;;;;9.82;7.40;;;;;;;;;;5043128;28;20718;-85
2021/04/24 09:05:52;;;;;;;12.48;8.45;;;;;;;;;;5038090;28;20174;-83
2021/04/24 09:08:26;;;;;;;14.35;8.48;;;;;;;;;;5040828;28;20236;-86
2021/04/24 09:10:55;;;;;;;10.85;7.55;;;;;;;;;;5038656;28;20212;-87
2021/04/24 09:13:22;;;;;;;12.45;8.15;;;;;;;;;;5038634;28;20190;-83
2021/04/24 09:15:49;;;;;;;11.57;8.00;;;;;;;;;;5021654;28;20550;-85
2021/04/24 09:18:17;;;;;;;10.55;7.85;;;;;;;;;;5025003;28;20236;-84
2021/04/24 09:20:46;;;;;;;14.95;8.00;;;;;;;;;;5059128;28;20265;-86
2021/04/24 09:23:13;;;;;;;10.15;7.80;;;;;;;;;;5054940;28;20620;-84
2021/04/24 09:25:44;;;;;;;9.98;7.60;;;;;;;;;;5053533;28;20190;-83
2021/04/24 09:28:13;;;;;;;16.15;9.73;;;;;;;;;;5054091;28;20197;-85
2021/04/24 09:30:41;;;;;;;9.23;7.35;;;;;;;;;;5039702;28;20304;-90
2021/04/24 09:33:08;;;;;;;11.50;9.00;;;;;;;;;;5050353;28;20573;-86
2021/04/24 09:35:42;;;;;;;9.00;7.35;;;;;;;;;;5056852;28;20201;-83
2021/04/24 09:38:09;;;;;;;11.57;7.07;;;;;;;;;;5046719;28;20719;-85
2021/04/24 09:40:35;;;;;;;10.38;7.60;;;;;;;;;;5040240;28;20226;-83
2021/04/24 09:43:04;;;;;;;11.10;8.77;;;;;;;;;;5020833;28;20186;-80
2021/04/24 09:45:32;;;;;;;11.50;8.07;;;;;;;;;;5057104;28;20183;-87
2021/04/24 09:47:58;;;;;;;12.68;7.95;;;;;;;;;;5037802;28;20468;-85
2021/04/24 09:50:30;;;;;;;10.88;7.18;;;;;;;;;;5044527;28;20170;-84
2021/04/24 09:53:15;;;;;;;8.20;6.70;;;;;;;;;;5037152;28;20211;-88
2021/04/24 09:55:41;;;;;;;9.48;7.00;;;;;;;;;;5033558;28;20222;-84
2021/04/24 09:58:24;;;;;;;10.13;6.90;;;;;;;;;;5027961;28;20179;-83
2021/04/24 10:00:50;;;;;;;8.95;7.75;;;;;;;;;;5047118;28;20181;-87
2021/04/24 10:03:35;;;;;;;13.38;7.63;;;;;;;;;;5035805;28;20311;-84
2021/04/24 10:06:20;;;;;;;12.27;6.85;;;;;;;;;;5042875;28;20190;-85
2021/04/24 10:08:45;;;;;;;12.80;7.47;;;;;;;;;;5042708;28;20197;-82
2021/04/24 10:11:25;;;;;;;10.80;7.10;;;;;;;;;;5053386;28;20192;-77
2021/04/24 10:13:51;;;;;;;8.63;6.90;;;;;;;;;;5035331;28;20955;-78
2021/04/24 10:16:37;;;;;;;10.05;7.32;;;;;;;;;;5041252;28;20214;-76
2021/04/24 10:19:05;;;;;;;13.32;7.78;;;;;;;;;;5045596;28;20215;-78
2021/04/24 10:21:31;;;;;;;11.85;7.95;;;;;;;;;;5046086;28;20185;-78
2021/04/24 10:23:58;;;;;;;10.38;8.45;;;;;;;;;;5040620;28;20200;-76
2021/04/24 10:26:25;;;;;;;9.80;7.20;;;;;;;;;;5058979;28;20182;-83
2021/04/24 10:28:52;;;;;;;11.98;8.20;;;;;;;;;;5039341;28;20197;-85
2021/04/24 10:31:19;;;;;;;14.07;9.52;;;;;;;;;;5020096;28;20179;-79
2021/04/24 10:33:45;;;;;;;11.20;7.40;;;;;;;;;;5060209;28;20182;-80
2021/04/24 10:36:11;;;;;;;10.40;7.00;;;;;;;;;;5056020;28;20338;-81
2021/04/24 10:38:41;;;;;;;14.15;8.18;;;;;;;;;;5046128;28;20221;-80
2021/04/24 10:41:08;;;;;;;12.27;8.13;;;;;;;;;;5041784;28;20181;-83
2021/04/24 10:43:34;;;;;;;11.88;7.43;;;;;;;;;;5039978;28;20188;-79
2021/04/24 10:46:19;;;;;;;14.20;7.97;;;;;;;;;;5024593;28;20221;-80
2021/04/24 10:48:45;;;;;;;10.13;7.80;;;;;;;;;;5056466;28;20426;-77
2021/04/24 10:51:11;;;;;;;11.48;7.85;;;;;;;;;;5046361;28;20185;-78
2021/04/24 10:53:37;;;;;;;14.20;7.80;;;;;;;;;;5039399;28;20185;-81
2021/04/24 10:56:03;;;;;;;9.50;6.57;;;;;;;;;;5041531;28;20464;-77
2021/04/24 10:58:30;;;;;;;12.77;9.55;;;;;;;;;;5040560;28;20444;-79
2021/04/24 11:01:00;;;;;;;13.50;7.75;;;;;;;;;;5043229;28;20242;-79
2021/04/24 11:03:35;;;;;;;8.57;7.18;;;;;;;;;;5044133;28;20249;-82
2021/04/24 11:06:10;;;;;;;9.02;6.97;;;;;;;;;;5040577;28;20216;-80
2021/04/24 11:08:36;;;;;;;7.80;6.70;;;;;;;;;;5027828;28;20239;-79
2021/04/24 11:11:04;;;;;;;12.60;7.57;;;;;;;;;;5060520;28;20182;-81
2021/04/24 11:13:41;;;;;;;8.40;6.88;;;;;;;;;;5046945;28;20281;-85
2021/04/24 11:16:09;;;;;;;9.15;7.05;;;;;;;;;;5040646;28;20189;-81
2021/04/24 11:18:36;;;;;;;11.48;8.20;;;;;;;;;;5058904;28;20178;-79
2021/04/24 11:21:05;;;;;;;9.45;7.15;;;;;;;;;;5055467;28;20192;-84
2021/04/24 11:23:44;;;;;;;11.30;6.20;;;;;;;;;;5041631;28;20174;-83
2021/04/24 11:26:15;;;;;;;9.20;7.13;;;;;;;;;;5041478;28;20181;-76
2021/04/24 11:28:57;;;;;;;8.55;7.22;;;;;;;;;;5044673;28;20177;-83
2021/04/24 11:31:42;;;;;;;9.93;6.55;;;;;;;;;;5022070;28;20209;-82
2021/04/24 11:34:24;;;;;;;7.05;6.30;;;;;;;;;;5040493;28;20488;-77
2021/04/24 11:37:08;;;;;;;9.18;6.35;;;;;;;;;;5036006;28;20209;-78
2021/04/24 11:39:34;;;;;;;7.35;6.00;;;;;;;;;;5060118;28;20218;-83
2021/04/24 11:42:20;;;;;;;9.23;7.22;;;;;;;;;;5060790;28;20184;-78
2021/04/24 11:44:46;;;;;;;8.55;7.03;;;;;;;;;;5043058;28;20256;-78
2021/04/24 11:47:12;;;;;;;12.80;7.93;;;;;;;;;;5055824;28;20201;-79
2021/04/24 11:49:50;;;;;;;9.93;7.30;;;;;;;;;;5040021;28;20448;-81
2021/04/24 11:52:16;;;;;;;9.18;7.65;;;;;;;;;;5033911;28;20456;-78
2021/04/24 11:54:42;;;;;;;8.50;6.38;;;;;;;;;;5058426;28;20733;-80
2021/04/24 11:57:19;;;;;;;7.70;6.93;;;;;;;;;;5028633;28;20178;-83
2021/04/24 11:59:48;;;;;;;9.00;6.85;;;;;;;;;;5044790;28;20174;-83
2021/04/24 12:02:14;;;;;;;6.90;5.43;;;;;;;;;;5057252;28;20249;-83
2021/04/24 12:04:40;;;;;;;10.57;5.90;;;;;;;;;;5037499;28;20182;-86
2021/04/24 12:07:08;;;;;;;7.95;5.95;;;;;;;;;;5021790;28;20853;-82
2021/04/24 12:09:47;;;;;;;8.93;6.05;;;;;;;;;;5043363;28;20209;-77
2021/04/24 12:12:30;;;;;;;7.40;5.85;;;;;;;;;;5041382;28;20190;-77
2021/04/24 12:15:10;;;;;;;9.98;6.10;;;;;;;;;;5054955;28;20208;-79
2021/04/24 12:17:46;;;;;;;7.90;4.90;;;;;;;;;;5056105;28;20177;-82
2021/04/24 12:20:19;;;;;;;8.00;6.00;;;;;;;;;;5043279;28;20257;-84
2021/04/24 12:22:45;;;;;;;7.18;6.47;;;;;;;;;;5016641;28;20404;-82
2021/04/24 12:25:11;;;;;;;6.70;6.00;;;;;;;;;;5039728;28;20189;-77
2021/04/24 12:27:41;;;;;;;9.23;7.00;;;;;;;;;;5059270;28;20854;-78
2021/04/24 12:30:08;;;;;;;11.50;7.27;;;;;;;;;;5025515;28;20440;-80
2021/04/24 12:33:00;;;;;;;9.20;6.33;;;;;;;;;;5044745;28;20428;-78
2021/04/24 12:35:27;;;;;;;9.53;6.47;;;;;;;;;;5021000;28;20436;-83
2021/04/24 12:38:03;;;;;;;8.00;6.20;;;;;;;;;;5042379;28;20532;-79
2021/04/24 12:40:30;;;;;;;10.63;5.70;;;;;;;;;;5020744;28;20447;-83
2021/04/24 12:43:07;;;;;;;10.27;5.43;;;;;;;;;;5042878;28;20408;-78
2021/04/24 12:45:33;;;;;;;8.93;6.57;;;;;;;;;;5039281;28;20531;-81
2021/04/24 12:47:59;;;;;;;9.23;5.70;;;;;;;;;;5059361;28;20517;-82
2021/04/24 12:50:25;;;;;;;8.17;6.67;;;;;;;;;;5054777;28;20818;-83
2021/04/24 12:52:58;;;;;;;8.30;5.40;;;;;;;;;;5038308;28;20418;-80
2021/04/24 12:55:35;;;;;;;5.63;5.03;;;;;;;;;;5018449;28;20507;-82
2021/04/24 12:58:03;;;;;;;8.60;6.20;;;;;;;;;;5043186;28;20411;-78
2021/04/24 13:00:33;;;;;;;7.27;6.50;;;;;;;;;;5057852;28;20448;-80
2021/04/24 13:02:59;;;;;;;6.67;6.07;;;;;;;;;;5038399;28;20439;-80
2021/04/24 13:05:32;;;;;;;8.83;6.70;;;;;;;;;;5043525;28;20413;-81
2021/04/24 13:08:09;;;;;;;9.43;6.60;;;;;;;;;;5039348;28;20420;-85
2021/04/24 13:10:37;;;;;;;8.00;6.00;;;;;;;;;;5039165;28;20838;-86
2021/04/24 13:13:04;;;;;;;9.57;6.53;;;;;;;;;;5041870;28;20407;-83
2021/04/24 13:15:43;;;;;;;6.77;6.03;;;;;;;;;;5025069;28;20473;-79
2021/04/24 13:18:41;;;;;;;7.70;5.67;;;;;;;;;;5033342;28;20515;-87
2021/04/24 13:21:26;;;;;;;7.23;6.47;;;;;;;;;;5031020;28;20493;-82
2021/04/24 13:23:59;;;;;;;7.70;5.87;;;;;;;;;;5042321;28;20485;-84
2021/04/24 13:26:25;;;;;;;6.17;5.57;;;;;;;;;;5042699;28;20403;-85
2021/04/24 13:28:51;;;;;;;8.30;5.67;;;;;;;;;;5039601;28;20431;-81
2021/04/24 13:31:20;;;;;;;7.70;5.70;;;;;;;;;;5024017;28;20501;-84
2021/04/24 13:33:46;;;;;;;6.80;6.10;;;;;;;;;;5014721;28;20428;-82
2021/04/24 13:36:16;;;;;;;6.23;5.60;;;;;;;;;;5041031;28;20446;-81
2021/04/24 13:38:42;;;;;;;7.03;6.17;;;;;;;;;;5042943;28;20951;-79
2021/04/24 13:41:15;;;;;;;8.00;4.90;;;;;;;;;;5038819;28;20597;-85
2021/04/24 13:43:41;;;;;;;6.03;5.43;;;;;;;;;;5006434;28;20391;-85
2021/04/24 13:46:18;;;;;;;7.47;6.30;;;;;;;;;;5043353;28;21142;-81
2021/04/24 13:48:44;;;;;;;6.50;5.53;;;;;;;;;;5038813;28;20412;-80
2021/04/24 13:51:10;;;;;;;7.13;6.20;;;;;;;;;;5038317;28;20434;-85
2021/04/24 13:53:36;;;;;;;7.77;5.90;;;;;;;;;;5038257;28;20396;-82
2021/04/24 13:56:02;;;;;;;7.43;6.30;;;;;;;;;;5053412;28;20442;-79
2021/04/24 13:58:28;;;;;;;9.57;6.43;;;;;;;;;;5037712;28;20473;-79
2021/04/24 14:00:54;;;;;;;7.00;6.30;;;;;;;;;;5022476;28;20415;-84
2021/04/24 14:03:20;;;;;;;10.27;6.27;;;;;;;;;;5024557;28;20424;-81
2021/04/24 14:05:46;;;;;;;10.50;6.63;;;;;;;;;;5037545;28;20421;-81
2021/04/24 14:08:12;;;;;;;7.70;6.00;;;;;;;;;;5038220;28;20440;-82
2021/04/24 14:10:38;;;;;;;10.50;6.07;;;;;;;;;;5037380;28;20440;-80
2021/04/24 14:13:06;;;;;;;7.53;5.57;;;;;;;;;;5038878;28;20419;-82
2021/04/24 14:15:32;;;;;;;7.97;6.55;;;;;;;;;;5040471;28;20464;-79
2021/04/24 14:17:58;;;;;;;7.28;6.28;;;;;;;;;;5052456;28;20181;-82
2021/04/24 14:20:24;;;;;;;8.25;6.38;;;;;;;;;;5037892;28;20186;-81
2021/04/24 14:22:50;;;;;;;8.85;6.45;;;;;;;;;;5052323;28;20207;-81
2021/04/24 14:25:16;;;;;;;10.03;7.47;;;;;;;;;;5042004;28;20189;-84
2021/04/24 14:27:43;;;;;;;8.43;7.60;;;;;;;;;;5038269;28;20470;-81
2021/04/24 14:30:11;;;;;;;8.27;6.30;;;;;;;;;;5038566;28;20183;-82
2021/04/24 14:32:38;;;;;;;8.57;6.72;;;;;;;;;;5037356;28;20210;-80
2021/04/24 14:35:05;;;;;;;9.27;6.93;;;;;;;;;;5043764;28;20235;-85
2021/04/24 14:37:31;;;;;;;11.23;6.75;;;;;;;;;;5037199;28;20627;-85
2021/04/24 14:39:57;;;;;;;7.93;6.43;;;;;;;;;;5021207;28;20230;-78
2021/04/24 14:42:23;;;;;;;9.13;6.77;;;;;;;;;;5053182;28;20180;-80